sensor_id;sensor_type;location;lat;lon;timestamp;pressure;altitude;pressure_sealevel;temperature;humidity
75553;BME280;64136;53.118;17.996;2023-06-14T00:01:54;101257.61;;;16.18;59.38
75553;BME280;64136;53.118;17.996;2023-06-14T00:05:27;101261.13;;;16.21;59.25
75553;BME280;64136;53.118;17.996;2023-06-14T00:15:04;101249.99;;;16.31;58.87
75553;BME280;64136;53.118;17.996;2023-06-14T00:40:45;101240.35;;;16.53;58.98
75553;BME280;64136;53.118;17.996;2023-06-14T00:43:42;101234.87;;;16.50;58.83
75553;BME280;64136;53.118;17.996;2023-06-14T00:52:28;101222.08;;;16.34;59.98
75553;BME280;64136;53.118;17.996;2023-06-14T01:04:40;101217.24;;;16.29;59.37
75553;BME280;64136;53.118;17.996;2023-06-14T01:10:36;101203.61;;;16.41;59.19
75553;BME280;64136;53.118;17.996;2023-06-14T01:14:01;101201.30;;;16.45;59.08
75553;BME280;64136;53.118;17.996;2023-06-14T01:17:13;101193.38;;;16.41;60.11
75553;BME280;64136;53.118;17.996;2023-06-14T01:26:46;101195.20;;;16.18;60.78
75553;BME280;64136;53.118;17.996;2023-06-14T01:41:52;101192.45;;;16.13;59.83
75553;BME280;64136;53.118;17.996;2023-06-14T02:02:01;101180.05;;;15.60;62.88
75553;BME280;64136;53.118;17.996;2023-06-14T02:05:20;101179.50;;;15.58;62.42
75553;BME280;64136;53.118;17.996;2023-06-14T02:11:34;101177.48;;;15.62;62.45
75553;BME280;64136;53.118;17.996;2023-06-14T03:25:56;101157.90;;;14.89;65.24
75553;BME280;64136;53.118;17.996;2023-06-14T03:29:30;101159.63;;;14.88;65.43
75553;BME280;64136;53.118;17.996;2023-06-14T03:48:36;101168.67;;;14.88;65.18
75553;BME280;64136;53.118;17.996;2023-06-14T03:51:21;101170.34;;;14.92;65.45
75553;BME280;64136;53.118;17.996;2023-06-14T03:54:25;101167.09;;;14.90;65.57
75553;BME280;64136;53.118;17.996;2023-06-14T03:57:24;101162.02;;;14.87;65.95
75553;BME280;64136;53.118;17.996;2023-06-14T03:59:59;101168.77;;;14.87;65.46
75553;BME280;64136;53.118;17.996;2023-06-14T04:06:14;101184.98;;;15.09;64.52
75553;BME280;64136;53.118;17.996;2023-06-14T04:12:12;101196.60;;;15.30;64.32
75553;BME280;64136;53.118;17.996;2023-06-14T04:15:20;101192.56;;;15.37;63.51
75553;BME280;64136;53.118;17.996;2023-06-14T04:18:00;101184.17;;;15.34;63.59
75553;BME280;64136;53.118;17.996;2023-06-14T04:23:15;101185.71;;;15.37;63.97
75553;BME280;64136;53.118;17.996;2023-06-14T04:25:46;101191.84;;;15.34;64.27
75553;BME280;64136;53.118;17.996;2023-06-14T04:28:14;101196.31;;;15.32;64.06
75553;BME280;64136;53.118;17.996;2023-06-14T04:30:46;101193.02;;;15.30;64.06
75553;BME280;64136;53.118;17.996;2023-06-14T04:33:29;101193.63;;;15.30;64.22
75553;BME280;64136;53.118;17.996;2023-06-14T04:36:01;101195.21;;;15.30;64.39
75553;BME280;64136;53.118;17.996;2023-06-14T04:38:53;101192.05;;;15.29;64.42
75553;BME280;64136;53.118;17.996;2023-06-14T04:41:27;101189.17;;;15.39;64.16
75553;BME280;64136;53.118;17.996;2023-06-14T04:44:11;101190.54;;;15.45;64.46
75553;BME280;64136;53.118;17.996;2023-06-14T04:46:46;101198.52;;;15.48;64.42
75553;BME280;64136;53.118;17.996;2023-06-14T04:54:57;101191.51;;;15.70;63.69
75553;BME280;64136;53.118;17.996;2023-06-14T04:57:30;101192.52;;;15.77;62.87
75553;BME280;64136;53.118;17.996;2023-06-14T05:00:08;101184.78;;;15.87;63.21
75553;BME280;64136;53.118;17.996;2023-06-14T05:02:40;101187.55;;;15.95;62.85
75553;BME280;64136;53.118;17.996;2023-06-14T05:08:12;101180.97;;;16.06;62.69
75553;BME280;64136;53.118;17.996;2023-06-14T05:20:28;101168.45;;;16.36;61.58
75553;BME280;64136;53.118;17.996;2023-06-14T05:30:06;101203.21;;;16.46;61.30
75553;BME280;64136;53.118;17.996;2023-06-14T05:32:32;101205.27;;;16.38;61.36
75553;BME280;64136;53.118;17.996;2023-06-14T05:35:01;101201.27;;;16.39;61.30
75553;BME280;64136;53.118;17.996;2023-06-14T05:37:29;101197.64;;;16.42;61.48
75553;BME280;64136;53.118;17.996;2023-06-14T05:40:01;101196.17;;;16.46;61.09
75553;BME280;64136;53.118;17.996;2023-06-14T05:43:07;101186.02;;;16.50;60.67
75553;BME280;64136;53.118;17.996;2023-06-14T05:48:31;101172.63;;;16.48;60.86
75553;BME280;64136;53.118;17.996;2023-06-14T05:51:26;101164.46;;;16.39;61.04
75553;BME280;64136;53.118;17.996;2023-06-14T05:53:53;101167.40;;;16.49;61.01
75553;BME280;64136;53.118;17.996;2023-06-14T05:59:41;101171.70;;;16.71;60.98
75553;BME280;64136;53.118;17.996;2023-06-14T06:02:22;101160.86;;;16.88;60.60
75553;BME280;64136;53.118;17.996;2023-06-14T06:08:05;101163.70;;;17.39;59.53
75553;BME280;64136;53.118;17.996;2023-06-14T06:14:16;101171.46;;;17.72;57.86
75553;BME280;64136;53.118;17.996;2023-06-14T06:19:58;101175.35;;;18.15;55.90
75553;BME280;64136;53.118;17.996;2023-06-14T06:22:29;101176.31;;;18.30;55.92
75553;BME280;64136;53.118;17.996;2023-06-14T06:24:56;101176.95;;;18.37;55.33
75553;BME280;64136;53.118;17.996;2023-06-14T06:27:39;101182.86;;;18.41;54.61
75553;BME280;64136;53.118;17.996;2023-06-14T06:33:39;101186.30;;;18.53;54.39
75553;BME280;64136;53.118;17.996;2023-06-14T06:36:09;101187.70;;;18.41;53.66
75553;BME280;64136;53.118;17.996;2023-06-14T06:38:35;101190.55;;;18.57;54.20
75553;BME280;64136;53.118;17.996;2023-06-14T06:41:06;101184.52;;;18.69;53.16
75553;BME280;64136;53.118;17.996;2023-06-14T06:43:34;101186.05;;;18.78;53.20
75553;BME280;64136;53.118;17.996;2023-06-14T06:49:19;101196.63;;;19.17;52.75
75553;BME280;64136;53.118;17.996;2023-06-14T06:52:00;101193.38;;;19.02;51.19
75553;BME280;64136;53.118;17.996;2023-06-14T06:54:37;101199.72;;;19.15;51.98
75553;BME280;64136;53.118;17.996;2023-06-14T06:57:06;101205.80;;;19.21;51.64
75553;BME280;64136;53.118;17.996;2023-06-14T06:59:33;101201.98;;;19.10;51.17
75553;BME280;64136;53.118;17.996;2023-06-14T07:02:00;101204.34;;;18.98;51.35
75553;BME280;64136;53.118;17.996;2023-06-14T07:04:42;101201.33;;;19.04;51.77
75553;BME280;64136;53.118;17.996;2023-06-14T07:07:17;101203.55;;;19.14;51.64
75553;BME280;64136;53.118;17.996;2023-06-14T07:09:48;101206.77;;;19.26;51.85
75553;BME280;64136;53.118;17.996;2023-06-14T07:15:16;101211.41;;;19.44;50.86
75553;BME280;64136;53.118;17.996;2023-06-14T07:18:03;101210.06;;;19.37;50.38
75553;BME280;64136;53.118;17.996;2023-06-14T07:20:42;101213.80;;;19.40;50.90
75553;BME280;64136;53.118;17.996;2023-06-14T07:23:09;101222.65;;;19.49;51.00
75553;BME280;64136;53.118;17.996;2023-06-14T07:25:40;101223.17;;;19.59;50.30
75553;BME280;64136;53.118;17.996;2023-06-14T07:28:17;101222.45;;;19.55;50.21
75553;BME280;64136;53.118;17.996;2023-06-14T07:30:44;101221.88;;;19.60;50.28
75553;BME280;64136;53.118;17.996;2023-06-14T07:33:16;101221.16;;;19.57;50.42
75553;BME280;64136;53.118;17.996;2023-06-14T07:35:54;101219.66;;;19.68;50.51
75553;BME280;64136;53.118;17.996;2023-06-14T07:39:02;101215.77;;;19.84;49.67
75553;BME280;64136;53.118;17.996;2023-06-14T07:42:10;101215.40;;;19.98;49.99
75553;BME280;64136;53.118;17.996;2023-06-14T07:44:41;101207.55;;;20.10;49.01
75553;BME280;64136;53.118;17.996;2023-06-14T07:47:17;101200.92;;;20.10;49.24
75553;BME280;64136;53.118;17.996;2023-06-14T07:50:01;101193.63;;;20.09;49.17
75553;BME280;64136;53.118;17.996;2023-06-14T07:52:56;101186.35;;;20.12;49.30
75553;BME280;64136;53.118;17.996;2023-06-14T07:55:30;101176.14;;;20.10;49.31
75553;BME280;64136;53.118;17.996;2023-06-14T07:58:04;101177.73;;;20.10;49.01
75553;BME280;64136;53.118;17.996;2023-06-14T08:03:10;101196.70;;;19.69;49.80
75553;BME280;64136;53.118;17.996;2023-06-14T08:05:46;101195.08;;;19.67;49.75
75553;BME280;64136;53.118;17.996;2023-06-14T08:08:13;101189.25;;;19.78;49.64
75553;BME280;64136;53.118;17.996;2023-06-14T08:10:39;101186.96;;;19.86;49.51
75553;BME280;64136;53.118;17.996;2023-06-14T08:13:28;101189.36;;;19.99;48.93
75553;BME280;64136;53.118;17.996;2023-06-14T08:15:54;101191.08;;;20.13;48.75
75553;BME280;64136;53.118;17.996;2023-06-14T08:18:24;101196.46;;;20.32;48.50
75553;BME280;64136;53.118;17.996;2023-06-14T08:20:55;101201.38;;;20.43;47.74
75553;BME280;64136;53.118;17.996;2023-06-14T08:23:27;101198.07;;;20.45;47.74
75553;BME280;64136;53.118;17.996;2023-06-14T08:25:57;101194.86;;;20.62;47.77
75553;BME280;64136;53.118;17.996;2023-06-14T08:30:56;101205.46;;;20.98;46.87
75553;BME280;64136;53.118;17.996;2023-06-14T08:33:23;101206.17;;;20.86;46.07
75553;BME280;64136;53.118;17.996;2023-06-14T08:35:57;101192.73;;;20.80;46.39
75553;BME280;64136;53.118;17.996;2023-06-14T08:48:10;101207.80;;;20.89;46.66
75553;BME280;64136;53.118;17.996;2023-06-14T08:51:04;101204.13;;;20.90;46.46
75553;BME280;64136;53.118;17.996;2023-06-14T08:54:23;101210.61;;;21.03;46.29
75553;BME280;64136;53.118;17.996;2023-06-14T08:57:05;101207.92;;;21.21;45.76
75553;BME280;64136;53.118;17.996;2023-06-14T09:00:08;101209.52;;;21.39;45.20
75553;BME280;64136;53.118;17.996;2023-06-14T09:03:34;101207.05;;;21.47;44.84
75553;BME280;64136;53.118;17.996;2023-06-14T09:10:18;101216.40;;;21.74;43.98
75553;BME280;64136;53.118;17.996;2023-06-14T09:17:04;101218.95;;;21.74;44.97
75553;BME280;64136;53.118;17.996;2023-06-14T09:20:02;101214.44;;;22.02;44.76
75553;BME280;64136;53.118;17.996;2023-06-14T09:22:40;101212.48;;;22.33;44.03
75553;BME280;64136;53.118;17.996;2023-06-14T09:25:19;101217.53;;;22.33;43.09
75553;BME280;64136;53.118;17.996;2023-06-14T09:36:36;101216.54;;;22.56;43.39
75553;BME280;64136;53.118;17.996;2023-06-14T09:39:53;101215.63;;;22.63;43.24
75553;BME280;64136;53.118;17.996;2023-06-14T09:42:20;101207.55;;;22.63;43.33
75553;BME280;64136;53.118;17.996;2023-06-14T09:44:52;101210.72;;;22.70;43.14
75553;BME280;64136;53.118;17.996;2023-06-14T09:47:22;101208.89;;;22.72;42.23
75553;BME280;64136;53.118;17.996;2023-06-14T09:49:50;101212.28;;;22.71;42.35
75553;BME280;64136;53.118;17.996;2023-06-14T09:52:18;101210.24;;;22.71;42.04
75553;BME280;64136;53.118;17.996;2023-06-14T09:54:46;101206.28;;;22.83;42.38
75553;BME280;64136;53.118;17.996;2023-06-14T09:57:15;101206.27;;;22.95;41.62
75553;BME280;64136;53.118;17.996;2023-06-14T10:02:39;101200.98;;;23.29;40.69
75553;BME280;64136;53.118;17.996;2023-06-14T10:05:11;101193.42;;;23.28;40.55
75553;BME280;64136;53.118;17.996;2023-06-14T10:07:52;101192.16;;;23.35;40.67
75553;BME280;64136;53.118;17.996;2023-06-14T10:10:19;101187.00;;;23.41;40.07
75553;BME280;64136;53.118;17.996;2023-06-14T10:12:46;101183.47;;;23.51;39.78
75553;BME280;64136;53.118;17.996;2023-06-14T10:15:20;101181.14;;;23.65;40.60
75553;BME280;64136;53.118;17.996;2023-06-14T10:27:50;101176.90;;;23.47;39.52
75553;BME280;64136;53.118;17.996;2023-06-14T10:30:49;101174.21;;;23.29;39.62
75553;BME280;64136;53.118;17.996;2023-06-14T10:33:49;101177.68;;;23.33;39.76
75553;BME280;64136;53.118;17.996;2023-06-14T10:39:47;101177.71;;;23.56;39.55
75553;BME280;64136;53.118;17.996;2023-06-14T10:42:32;101168.55;;;23.69;39.63
75553;BME280;64136;53.118;17.996;2023-06-14T10:47:57;101161.39;;;24.37;38.65
75553;BME280;64136;53.118;17.996;2023-06-14T10:50:41;101160.17;;;24.74;37.07
75553;BME280;64136;53.118;17.996;2023-06-14T10:53:23;101158.11;;;24.80;37.23
75553;BME280;64136;53.118;17.996;2023-06-14T10:55:50;101153.95;;;24.76;37.28
75553;BME280;64136;53.118;17.996;2023-06-14T10:58:40;101155.46;;;24.73;37.88
75553;BME280;64136;53.118;17.996;2023-06-14T11:01:11;101154.73;;;24.93;37.67
75553;BME280;64136;53.118;17.996;2023-06-14T11:03:49;101151.19;;;25.15;36.77
75553;BME280;64136;53.118;17.996;2023-06-14T11:06:22;101149.09;;;25.33;35.37
75553;BME280;64136;53.118;17.996;2023-06-14T11:11:42;101150.27;;;25.72;34.56
75553;BME280;64136;53.118;17.996;2023-06-14T11:16:42;101144.45;;;25.87;34.49
75553;BME280;64136;53.118;17.996;2023-06-14T11:19:16;101133.77;;;26.03;33.91
75553;BME280;64136;53.118;17.996;2023-06-14T11:21:46;101133.20;;;26.36;33.90
75553;BME280;64136;53.118;17.996;2023-06-14T11:24:13;101134.19;;;26.85;33.98
75553;BME280;64136;53.118;17.996;2023-06-14T11:26:42;101134.36;;;27.14;32.31
75553;BME280;64136;53.118;17.996;2023-06-14T11:29:15;101131.56;;;27.20;31.22
75553;BME280;64136;53.118;17.996;2023-06-14T11:31:43;101129.91;;;27.36;30.07
75553;BME280;64136;53.118;17.996;2023-06-14T11:34:18;101128.56;;;27.31;31.49
75553;BME280;64136;53.118;17.996;2023-06-14T11:39:15;101121.60;;;26.92;31.61
75553;BME280;64136;53.118;17.996;2023-06-14T11:41:43;101123.87;;;26.44;32.08
75553;BME280;64136;53.118;17.996;2023-06-14T11:44:10;101126.98;;;26.16;32.62
75553;BME280;64136;53.118;17.996;2023-06-14T11:46:37;101122.33;;;26.09;33.39
75553;BME280;64136;53.118;17.996;2023-06-14T11:49:04;101130.69;;;26.10;33.58
75553;BME280;64136;53.118;17.996;2023-06-14T11:51:33;101127.61;;;26.12;33.72
75553;BME280;64136;53.118;17.996;2023-06-14T11:54:05;101126.21;;;26.35;33.70
75553;BME280;64136;53.118;17.996;2023-06-14T11:56:44;101124.44;;;26.62;33.70
75553;BME280;64136;53.118;17.996;2023-06-14T11:59:13;101121.46;;;26.66;33.97
75553;BME280;64136;53.118;17.996;2023-06-14T12:01:47;101122.63;;;26.55;33.97
75553;BME280;64136;53.118;17.996;2023-06-14T12:04:14;101119.77;;;26.36;34.26
75553;BME280;64136;53.118;17.996;2023-06-14T12:09:39;101114.48;;;25.59;35.19
75553;BME280;64136;53.118;17.996;2023-06-14T12:12:06;101108.33;;;25.22;35.33
75553;BME280;64136;53.118;17.996;2023-06-14T12:14:41;101116.27;;;24.99;35.64
75553;BME280;64136;53.118;17.996;2023-06-14T12:17:17;101120.23;;;24.67;36.02
75553;BME280;64136;53.118;17.996;2023-06-14T12:19:45;101116.66;;;24.40;35.92
75553;BME280;64136;53.118;17.996;2023-06-14T12:22:16;101111.53;;;24.12;35.91
75553;BME280;64136;53.118;17.996;2023-06-14T12:24:59;101115.41;;;23.81;35.89
75553;BME280;64136;53.118;17.996;2023-06-14T12:30:33;101118.35;;;23.24;35.88
75553;BME280;64136;53.118;17.996;2023-06-14T12:33:08;101118.73;;;23.01;36.04
75553;BME280;64136;53.118;17.996;2023-06-14T12:35:40;101116.36;;;22.84;35.95
75553;BME280;64136;53.118;17.996;2023-06-14T12:38:06;101117.95;;;22.68;35.86
75553;BME280;64136;53.118;17.996;2023-06-14T12:40:33;101113.33;;;22.51;36.10
75553;BME280;64136;53.118;17.996;2023-06-14T12:43:00;101114.75;;;22.39;36.32
75553;BME280;64136;53.118;17.996;2023-06-14T12:45:26;101118.33;;;22.22;36.86
75553;BME280;64136;53.118;17.996;2023-06-14T12:47:56;101119.39;;;22.11;37.61
75553;BME280;64136;53.118;17.996;2023-06-14T12:50:23;101126.05;;;22.04;37.56
75553;BME280;64136;53.118;17.996;2023-06-14T12:52:54;101125.29;;;21.99;38.10
75553;BME280;64136;53.118;17.996;2023-06-14T12:55:23;101127.09;;;21.95;38.46
75553;BME280;64136;53.118;17.996;2023-06-14T12:57:54;101131.63;;;21.88;38.36
75553;BME280;64136;53.118;17.996;2023-06-14T13:00:24;101136.08;;;21.84;38.43
75553;BME280;64136;53.118;17.996;2023-06-14T13:02:56;101137.84;;;21.79;38.73
75553;BME280;64136;53.118;17.996;2023-06-14T13:05:25;101141.33;;;21.75;38.58
75553;BME280;64136;53.118;17.996;2023-06-14T13:08:06;101154.75;;;21.62;39.99
75553;BME280;64136;53.118;17.996;2023-06-14T13:10:42;101162.79;;;21.45;42.84
75553;BME280;64136;53.118;17.996;2023-06-14T13:13:14;101165.70;;;21.12;45.20
75553;BME280;64136;53.118;17.996;2023-06-14T13:15:43;101166.14;;;20.81;45.26
75553;BME280;64136;53.118;17.996;2023-06-14T13:21:08;101167.48;;;20.19;50.80
75553;BME280;64136;53.118;17.996;2023-06-14T13:26:17;101163.15;;;20.06;48.80
75553;BME280;64136;53.118;17.996;2023-06-14T13:28:44;101160.11;;;20.08;50.43
75553;BME280;64136;53.118;17.996;2023-06-14T13:31:17;101159.27;;;20.04;50.65
75553;BME280;64136;53.118;17.996;2023-06-14T13:34:03;101163.15;;;19.88;49.46
75553;BME280;64136;53.118;17.996;2023-06-14T13:36:53;101160.56;;;19.75;50.81
75553;BME280;64136;53.118;17.996;2023-06-14T13:42:27;101166.52;;;19.69;51.00
75553;BME280;64136;53.118;17.996;2023-06-14T13:48:03;101169.45;;;19.66;51.15
75553;BME280;64136;53.118;17.996;2023-06-14T13:51:13;101165.95;;;19.66;53.49
75553;BME280;64136;53.118;17.996;2023-06-14T13:53:49;101159.38;;;19.51;53.83
75553;BME280;64136;53.118;17.996;2023-06-14T13:56:21;101160.10;;;19.41;53.64
75553;BME280;64136;53.118;17.996;2023-06-14T13:58:52;101159.71;;;19.38;52.92
75553;BME280;64136;53.118;17.996;2023-06-14T14:01:36;101160.23;;;19.38;54.19
75553;BME280;64136;53.118;17.996;2023-06-14T14:04:11;101163.32;;;19.36;55.07
75553;BME280;64136;53.118;17.996;2023-06-14T14:06:40;101169.09;;;19.32;55.65
75553;BME280;64136;53.118;17.996;2023-06-14T14:09:15;101170.50;;;19.24;55.55
75553;BME280;64136;53.118;17.996;2023-06-14T14:11:47;101167.34;;;19.16;56.63
75553;BME280;64136;53.118;17.996;2023-06-14T14:14:23;101167.08;;;19.03;55.73
75553;BME280;64136;53.118;17.996;2023-06-14T14:17:06;101167.23;;;18.97;56.02
75553;BME280;64136;53.118;17.996;2023-06-14T14:19:56;101170.57;;;18.96;56.78
75553;BME280;64136;53.118;17.996;2023-06-14T14:22:28;101167.88;;;19.04;56.25
75553;BME280;64136;53.118;17.996;2023-06-14T14:28:15;101171.42;;;19.22;56.32
75553;BME280;64136;53.118;17.996;2023-06-14T14:31:03;101164.09;;;19.30;55.23
75553;BME280;64136;53.118;17.996;2023-06-14T14:33:46;101160.50;;;19.39;54.95
75553;BME280;64136;53.118;17.996;2023-06-14T14:36:32;101159.98;;;19.49;53.55
75553;BME280;64136;53.118;17.996;2023-06-14T14:39:08;101161.29;;;19.58;53.36
75553;BME280;64136;53.118;17.996;2023-06-14T14:41:35;101162.11;;;19.61;53.88
75553;BME280;64136;53.118;17.996;2023-06-14T14:44:05;101163.17;;;19.66;53.78
75553;BME280;64136;53.118;17.996;2023-06-14T14:46:40;101153.81;;;19.76;53.57
75553;BME280;64136;53.118;17.996;2023-06-14T14:49:30;101140.98;;;19.94;52.90
75553;BME280;64136;53.118;17.996;2023-06-14T14:52:06;101145.12;;;20.12;50.89
75553;BME280;64136;53.118;17.996;2023-06-14T14:54:53;101150.28;;;20.24;48.99
75553;BME280;64136;53.118;17.996;2023-06-14T14:57:23;101147.19;;;20.36;49.48
75553;BME280;64136;53.118;17.996;2023-06-14T14:59:55;101150.72;;;20.48;48.76
75553;BME280;64136;53.118;17.996;2023-06-14T15:02:40;101150.36;;;20.58;47.01
75553;BME280;64136;53.118;17.996;2023-06-14T15:05:17;101147.27;;;20.72;47.44
75553;BME280;64136;53.118;17.996;2023-06-14T15:07:46;101144.41;;;20.77;45.69
75553;BME280;64136;53.118;17.996;2023-06-14T15:10:23;101144.82;;;20.78;45.65
75553;BME280;64136;53.118;17.996;2023-06-14T15:12:57;101147.18;;;20.82;46.27
75553;BME280;64136;53.118;17.996;2023-06-14T15:15:31;101153.14;;;20.72;44.01
75553;BME280;64136;53.118;17.996;2023-06-14T15:18:23;101150.58;;;20.58;44.41
75553;BME280;64136;53.118;17.996;2023-06-14T15:26:45;101148.21;;;20.08;45.81
75553;BME280;64136;53.118;17.996;2023-06-14T15:29:20;101148.02;;;19.92;45.93
75553;BME280;64136;53.118;17.996;2023-06-14T15:31:52;101146.79;;;19.85;46.26
75553;BME280;64136;53.118;17.996;2023-06-14T15:34:41;101142.83;;;19.85;46.97
75553;BME280;64136;53.118;17.996;2023-06-14T15:37:37;101135.46;;;19.90;46.68
75553;BME280;64136;53.118;17.996;2023-06-14T15:40:09;101132.56;;;19.88;46.68
75553;BME280;64136;53.118;17.996;2023-06-14T15:42:43;101132.98;;;19.87;47.71
75553;BME280;64136;53.118;17.996;2023-06-14T15:45:17;101130.39;;;19.86;47.84
75553;BME280;64136;53.118;17.996;2023-06-14T15:47:47;101135.02;;;19.86;47.40
75553;BME280;64136;53.118;17.996;2023-06-14T15:50:35;101134.90;;;19.92;47.82
75553;BME280;64136;53.118;17.996;2023-06-14T15:53:03;101133.53;;;19.91;48.36
75553;BME280;64136;53.118;17.996;2023-06-14T15:55:34;101134.75;;;19.85;48.28
75553;BME280;64136;53.118;17.996;2023-06-14T15:58:06;101132.61;;;19.83;47.95
75553;BME280;64136;53.118;17.996;2023-06-14T16:00:37;101134.97;;;19.81;49.08
75553;BME280;64136;53.118;17.996;2023-06-14T16:03:04;101142.23;;;19.77;49.28
75553;BME280;64136;53.118;17.996;2023-06-14T16:05:30;101143.27;;;19.74;49.33
75553;BME280;64136;53.118;17.996;2023-06-14T16:08:05;101143.04;;;19.67;50.46
75553;BME280;64136;53.118;17.996;2023-06-14T16:10:35;101144.64;;;19.55;51.22
75553;BME280;64136;53.118;17.996;2023-06-14T16:13:11;101142.02;;;19.45;51.21
75553;BME280;64136;53.118;17.996;2023-06-14T16:15:44;101142.98;;;19.36;50.52
75553;BME280;64136;53.118;17.996;2023-06-14T16:18:16;101139.81;;;19.32;51.07
75553;BME280;64136;53.118;17.996;2023-06-14T16:20:59;101145.80;;;19.25;52.24
75553;BME280;64136;53.118;17.996;2023-06-14T16:23:32;101151.48;;;19.20;53.21
75553;BME280;64136;53.118;17.996;2023-06-14T16:26:10;101149.75;;;19.19;53.10
75553;BME280;64136;53.118;17.996;2023-06-14T16:28:41;101151.71;;;19.17;53.24
75553;BME280;64136;53.118;17.996;2023-06-14T16:31:09;101148.16;;;19.13;53.26
75553;BME280;64136;53.118;17.996;2023-06-14T16:33:59;101143.16;;;19.03;52.58
75553;BME280;64136;53.118;17.996;2023-06-14T16:36:40;101150.14;;;18.98;53.40
75553;BME280;64136;53.118;17.996;2023-06-14T16:39:31;101149.83;;;18.91;53.75
75553;BME280;64136;53.118;17.996;2023-06-14T16:42:00;101152.79;;;18.80;53.97
75553;BME280;64136;53.118;17.996;2023-06-14T16:44:32;101152.02;;;18.73;54.27
75553;BME280;64136;53.118;17.996;2023-06-14T16:46:58;101150.53;;;18.64;54.82
75553;BME280;64136;53.118;17.996;2023-06-14T16:49:29;101153.36;;;18.60;54.86
75553;BME280;64136;53.118;17.996;2023-06-14T16:52:08;101159.85;;;18.55;55.43
75553;BME280;64136;53.118;17.996;2023-06-14T16:54:37;101165.56;;;18.44;56.38
75553;BME280;64136;53.118;17.996;2023-06-14T16:57:06;101174.25;;;18.31;56.28
75553;BME280;64136;53.118;17.996;2023-06-14T17:00:03;101176.23;;;18.21;56.43
75553;BME280;64136;53.118;17.996;2023-06-14T17:02:46;101179.35;;;18.12;56.83
75553;BME280;64136;53.118;17.996;2023-06-14T17:08:16;101183.73;;;17.94;58.76
75553;BME280;64136;53.118;17.996;2023-06-14T17:10:57;101183.83;;;17.79;58.72
75553;BME280;64136;53.118;17.996;2023-06-14T17:13:36;101181.08;;;17.71;59.38
75553;BME280;64136;53.118;17.996;2023-06-14T17:16:02;101180.28;;;17.63;59.66
75553;BME280;64136;53.118;17.996;2023-06-14T17:18:44;101182.63;;;17.50;61.12
75553;BME280;64136;53.118;17.996;2023-06-14T17:21:22;101186.02;;;17.42;61.74
75553;BME280;64136;53.118;17.996;2023-06-14T17:24:13;101190.95;;;17.32;62.59
75553;BME280;64136;53.118;17.996;2023-06-14T17:26:46;101194.45;;;17.23;64.36
75553;BME280;64136;53.118;17.996;2023-06-14T17:29:48;101194.73;;;17.09;65.25
75553;BME280;64136;53.118;17.996;2023-06-14T17:32:48;101194.77;;;16.97;66.57
75553;BME280;64136;53.118;17.996;2023-06-14T17:35:30;101197.11;;;16.89;67.06
75553;BME280;64136;53.118;17.996;2023-06-14T17:38:09;101198.07;;;16.79;68.79
75553;BME280;64136;53.118;17.996;2023-06-14T17:41:11;101200.05;;;16.72;69.23
75553;BME280;64136;53.118;17.996;2023-06-14T17:44:01;101205.36;;;16.66;69.21
75553;BME280;64136;53.118;17.996;2023-06-14T17:46:30;101210.03;;;16.57;70.24
75553;BME280;64136;53.118;17.996;2023-06-14T17:49:14;101206.54;;;16.47;70.52
75553;BME280;64136;53.118;17.996;2023-06-14T17:52:14;101197.91;;;16.43;70.82
75553;BME280;64136;53.118;17.996;2023-06-14T17:57:58;101205.36;;;16.46;71.20
75553;BME280;64136;53.118;17.996;2023-06-14T18:00:52;101205.29;;;16.49;70.63
75553;BME280;64136;53.118;17.996;2023-06-14T18:03:52;101206.47;;;16.52;70.81
75553;BME280;64136;53.118;17.996;2023-06-14T18:06:50;101206.11;;;16.50;70.66
75553;BME280;64136;53.118;17.996;2023-06-14T18:16:06;101222.52;;;16.37;72.00
75553;BME280;64136;53.118;17.996;2023-06-14T18:19:04;101223.15;;;16.27;72.48
75553;BME280;64136;53.118;17.996;2023-06-14T18:21:52;101230.08;;;16.16;73.11
75553;BME280;64136;53.118;17.996;2023-06-14T18:24:49;101229.59;;;16.11;73.99
75553;BME280;64136;53.118;17.996;2023-06-14T18:36:43;101227.02;;;16.02;74.18
75553;BME280;64136;53.118;17.996;2023-06-14T18:42:50;101225.38;;;16.00;74.05
75553;BME280;64136;53.118;17.996;2023-06-14T18:45:46;101222.89;;;15.98;74.25
75553;BME280;64136;53.118;17.996;2023-06-14T18:48:54;101227.66;;;15.92;73.54
75553;BME280;64136;53.118;17.996;2023-06-14T18:51:43;101232.10;;;15.90;74.54
75553;BME280;64136;53.118;17.996;2023-06-14T18:57:16;101230.47;;;15.81;74.29
75553;BME280;64136;53.118;17.996;2023-06-14T19:00:18;101224.18;;;15.77;73.51
75553;BME280;64136;53.118;17.996;2023-06-14T19:09:17;101234.48;;;15.69;74.83
75553;BME280;64136;53.118;17.996;2023-06-14T19:11:49;101237.75;;;15.68;74.19
75553;BME280;64136;53.118;17.996;2023-06-14T19:17:30;101238.73;;;15.78;74.27
75553;BME280;64136;53.118;17.996;2023-06-14T19:20:22;101237.89;;;15.77;74.49
75553;BME280;64136;53.118;17.996;2023-06-14T19:23:01;101238.80;;;15.75;74.30
75553;BME280;64136;53.118;17.996;2023-06-14T19:25:33;101246.29;;;15.73;74.43
75553;BME280;64136;53.118;17.996;2023-06-14T19:28:07;101248.98;;;15.70;74.62
75553;BME280;64136;53.118;17.996;2023-06-14T19:33:57;101252.75;;;15.70;74.45
75553;BME280;64136;53.118;17.996;2023-06-14T19:36:41;101250.20;;;15.73;73.84
75553;BME280;64136;53.118;17.996;2023-06-14T19:48:46;101251.69;;;15.70;74.37
75553;BME280;64136;53.118;17.996;2023-06-14T19:54:28;101252.41;;;15.79;73.53